• Join FlightAware (Why Join?)
  • Login
  • US Flag 
07:40AM EDT


 

Airport Tracker/Info


-or-


 

Live Flight TrackerFlight Track Log ✈ FDX1570 ✈ 18-Jun-2013 ✈ KMEM - KALB

Flight Track Log - Related Links

Times and Time Zones

All times are in EDT time to prevent confusion due to time zone crossing. See the FDX1570 flight status page for this flight to view local times or setup timezone preferences in your user account.

Time Position Orientation Groundspeed Altitude Reporting Facility
EDT Latitude Longitude Course Direction KTS MPH feet Rate Location/Type
04:26AM 35.0167 -89.9667 158° South 174 200 1,200  Level KMEM
04:27AM 34.9500 -89.9333 158° South 263 303 4,200 2,460 Climbing KMEM
04:28AM 34.9833 -89.8333 68° East 291 335 7,100 2,520 Climbing KMEM
04:30AM 35.0369 -89.6900 65° Northeast 330 380 11,200 2,160 Climbing Memphis Center
04:31AM 35.0944 -89.5678 60° Northeast 351 404 13,100 2,280 Climbing Memphis Center
04:32AM 35.1625 -89.4581 53° Northeast 389 448 15,800 2,700 Climbing Memphis Center
04:33AM 35.2325 -89.3403 54° Northeast 410 472 18,500 2,400 Climbing Memphis Center
04:34AM 35.3044 -89.2222 53° Northeast 424 488 20,600 2,340 Climbing Memphis Center
04:35AM 35.3764 -89.0992 54° Northeast 437 503 23,200 1,920 Climbing Memphis Center
04:41AM 35.8240 -88.3420 54° Northeast 524 603 33,600 1,800 Climbing FlightAware
04:41AM 35.8810 -88.2450 54° Northeast 527 606 34,800 1,740 Climbing FlightAware
04:42AM 35.9790 -88.0770 54° Northeast 525 604 36,800 1,680 Climbing FlightAware
04:43AM 36.0470 -87.9610 54° Northeast 520 598 38,100 1,320 Climbing FlightAware
04:44AM 36.1020 -87.8670 54° Northeast 520 598 38,800 600 Climbing FlightAware
04:45AM 36.1670 -87.7550 54° Northeast 523 602 39,000 120 Climbing FlightAware
04:45AM 36.1850 -87.7240 54° Northeast 524 603 39,000  Level FlightAware
04:46AM 36.2810 -87.5570 54° Northeast 524 603 39,000  Level FlightAware
04:47AM 36.3440 -87.4490 54° Northeast 523 602 39,000  Level FlightAware
04:47AM 36.4020 -87.3490 54° Northeast 524 603 39,000  Level FlightAware
04:48AM 36.4640 -87.2390 55° Northeast 524 603 39,000  Level FlightAware
04:49AM 36.5230 -87.1350 55° Northeast 525 604 39,000  Level FlightAware
04:50AM 36.5780 -87.0390 54° Northeast 526 605 39,000  Level FlightAware
04:50AM 36.6350 -86.9380 55° Northeast 527 606 39,000  Level FlightAware
04:51AM 36.6770 -86.8630 55° Northeast 529 609 39,000  Level FlightAware
04:51AM 36.6940 -86.8334 54° Northeast 529 609 39,000  Level FlightAware ADS-B
04:51AM 36.7368 -86.7583 55° Northeast 531 611 39,000  Level FlightAware ADS-B
04:52AM 36.7797 -86.6833 54° Northeast 532 612 39,000  Level FlightAware ADS-B
04:52AM 36.8231 -86.6052 55° Northeast 533 613 39,000  Level FlightAware ADS-B
04:53AM 36.8656 -86.5294 55° Northeast 535 616 39,000  Level FlightAware ADS-B
04:54AM 36.9190 -86.4334 55° Northeast 535 616 39,000  Level FlightAware ADS-B
04:54AM 36.9750 -86.3320 55° Northeast 535 616 39,000  Level FlightAware
04:55AM 37.0180 -86.2550 55° Northeast 536 617 39,000  Level FlightAware
04:56AM 37.0020 -86.2830 234° Southwest 537 618 39,000  Level FlightAware
04:56AM 37.1560 -86.0070 55° Northeast 538 619 39,000  Level FlightAware
04:57AM 37.2210 -85.8890 55° Northeast 539 620 39,000  Level FlightAware
04:58AM 37.2830 -85.7750 56° Northeast 540 621 39,000  Level FlightAware
04:59AM 37.3689 -85.6170 56° Northeast 540 621 39,000  Level FlightAware ADS-B
04:59AM 37.4120 -85.5367 56° Northeast 541 623 39,000  Level FlightAware ADS-B
05:00AM 37.4544 -85.4589 56° Northeast 541 623 39,000  Level FlightAware ADS-B
05:00AM 37.4983 -85.3785 55° Northeast 540 621 39,000  Level FlightAware ADS-B
05:01AM 37.5417 -85.2978 56° Northeast 540 621 39,000  Level FlightAware ADS-B
05:01AM 37.5846 -85.2195 55° Northeast 541 623 39,000  Level FlightAware ADS-B
05:02AM 37.6272 -85.1385 56° Northeast 542 624 39,000  Level FlightAware ADS-B
05:02AM 37.6755 -85.0498 55° Northeast 541 623 39,000  Level FlightAware ADS-B
05:03AM 37.7189 -84.9684 56° Northeast 541 623 39,000  Level FlightAware ADS-B
05:04AM 37.7958 -84.8244 56° Northeast 541 623 39,000  Level FlightAware ADS-B
05:05AM 37.8530 -84.7170 56° Northeast 540 621 39,000  Level FlightAware
05:05AM 37.9170 -84.5930 57° Northeast 540 621 39,000  Level FlightAware
05:06AM 37.9740 -84.4850 56° Northeast 541 623 39,000  Level FlightAware
05:07AM 38.0410 -84.3590 56° Northeast 542 624 39,000  Level FlightAware
05:08AM 38.0980 -84.2510 56° Northeast 542 624 39,000  Level FlightAware
05:08AM 38.1430 -84.1680 55° Northeast 542 624 39,000  Level FlightAware
05:09AM 38.1880 -84.0820 56° Northeast 542 624 39,000  Level FlightAware
05:10AM 38.2590 -83.9470 56° Northeast 542 624 39,000  Level FlightAware
05:12AM 38.3780 -83.7220 56° Northeast 542 624 39,000  Level FlightAware
05:12AM 38.4360 -83.6140 56° Northeast 542 624 39,000  Level FlightAware
05:13AM 38.5310 -83.4100 59° Northeast 545 627 39,000  Level FlightAware
05:14AM 38.6150 -83.2460 57° Northeast 544 626 39,000  Level FlightAware
05:15AM 38.6740 -83.1300 57° Northeast 543 625 39,000  Level FlightAware
05:16AM 38.7550 -82.9670 57° Northeast 542 624 39,000  Level FlightAware
05:17AM 38.8420 -82.7940 57° Northeast 544 626 39,000  Level FlightAware
05:17AM 38.8960 -82.6850 57° Northeast 544 626 39,000  Level FlightAware
05:18AM 38.9570 -82.5630 57° Northeast 545 627 39,000  Level FlightAware
05:19AM 39.0120 -82.4510 58° Northeast 546 628 39,000  Level FlightAware
05:19AM 39.0680 -82.3380 57° Northeast 547 629 39,000  Level FlightAware
05:20AM 39.1390 -82.1950 57° Northeast 548 631 39,000  Level FlightAware
05:21AM 39.2010 -82.0650 58° Northeast 549 632 39,000  Level FlightAware
05:22AM 39.2560 -81.9540 57° Northeast 549 632 39,000  Level FlightAware
05:22AM 39.3120 -81.8400 58° Northeast 550 633 39,000  Level FlightAware
05:23AM 39.3720 -81.7150 58° Northeast 551 634 39,000  Level FlightAware
05:24AM 39.4240 -81.6060 58° Northeast 550 633 39,000  Level FlightAware
05:24AM 39.4830 -81.4830 58° Northeast 550 633 39,000  Level FlightAware
05:25AM 39.5290 -81.3880 58° Northeast 548 631 39,000  Level FlightAware
05:26AM 39.5930 -81.2540 58° Northeast 548 631 39,000  Level FlightAware
05:27AM 39.6500 -81.1340 58° Northeast 548 631 39,000  Level FlightAware
05:28AM 39.7280 -80.9680 59° Northeast 549 632 39,000  Level FlightAware
05:28AM 39.7770 -80.8660 58° Northeast 549 632 39,000  Level FlightAware
05:29AM 39.8340 -80.7430 59° Northeast 549 632 39,000  Level FlightAware
05:30AM 39.8840 -80.6360 59° Northeast 550 633 39,000  Level FlightAware
05:31AM 39.9630 -80.4650 59° Northeast 550 633 39,000  Level FlightAware
05:31AM 40.0230 -80.3350 59° Northeast 550 633 39,000  Level FlightAware
05:32AM 40.0740 -80.2240 59° Northeast 550 633 39,000  Level FlightAware
05:33AM 40.1300 -80.1020 59° Northeast 549 632 39,000  Level FlightAware
05:33AM 40.1850 -79.9820 59° Northeast 550 633 39,000  Level FlightAware
05:34AM 40.2430 -79.8560 59° Northeast 550 633 39,000  Level FlightAware
05:35AM 40.2900 -79.7530 59° Northeast 550 633 39,000  Level FlightAware
05:35AM 40.3360 -79.6500 60° Northeast 550 633 39,000  Level FlightAware
05:36AM 40.3940 -79.5210 59° Northeast 550 633 39,000  Level FlightAware
05:37AM 40.4380 -79.4230 59° Northeast 551 634 39,000  Level FlightAware
05:37AM 40.5040 -79.2760 59° Northeast 552 635 39,000  Level FlightAware
05:38AM 40.5550 -79.1600 60° Northeast 553 636 39,000  Level FlightAware
05:39AM 40.6070 -79.0440 59° Northeast 553 636 39,000  Level FlightAware
05:40AM 40.6540 -78.9360 60° Northeast 553 636 39,000  Level FlightAware
05:40AM 40.7060 -78.8200 59° Northeast 553 636 39,000  Level FlightAware
05:41AM 40.7620 -78.6920 60° Northeast 553 636 39,000  Level FlightAware
05:42AM 40.8150 -78.5720 60° Northeast 553 636 39,000  Level FlightAware
05:42AM 40.8710 -78.4430 60° Northeast 554 638 39,000  Level FlightAware
05:43AM 40.9290 -78.3110 60° Northeast 554 638 39,000  Level FlightAware
05:44AM 40.9810 -78.1900 60° Northeast 555 639 39,000  Level FlightAware
05:44AM 41.0310 -78.0720 61° Northeast 554 638 39,000  Level FlightAware
05:45AM 41.1027 -77.9034 61° Northeast 555 639 39,000  Level FlightAware ADS-B
05:46AM 41.1499 -77.7936 60° Northeast 556 640 39,000  Level FlightAware ADS-B
05:46AM 41.1889 -77.7019 61° Northeast 555 639 39,000  Level FlightAware ADS-B
05:47AM 41.2362 -77.5894 61° Northeast 553 636 39,000 -180 Level FlightAware ADS-B
05:48AM 41.2756 -77.4953 61° Northeast 550 633 38,800 -780 Descending FlightAware ADS-B
05:48AM 41.3153 -77.4018 60° Northeast 543 625 38,200 -1,260 Descending FlightAware ADS-B
05:49AM 41.3539 -77.3087 61° Northeast 543 625 37,500 -1,500 Descending FlightAware ADS-B
05:49AM 41.3916 -77.2203 60° Northeast 549 632 36,700 -1,380 Descending FlightAware ADS-B
05:50AM 41.4306 -77.1260 61° Northeast 548 631 36,100 -1,560 Descending FlightAware ADS-B
05:50AM 41.4678 -77.0372 61° Northeast 553 636 35,100 -1,800 Descending FlightAware ADS-B
05:51AM 41.5057 -76.9444 61° Northeast 555 639 34,300 -1,680 Descending FlightAware ADS-B
05:51AM 41.5435 -76.8513 61° Northeast 556 640 33,400 -1,980 Descending FlightAware ADS-B
05:52AM 41.5814 -76.7606 61° Northeast 562 647 32,300 -2,160 Descending FlightAware ADS-B
05:52AM 41.6217 -76.6625 61° Northeast 567 652 31,200 -2,760 Descending FlightAware ADS-B
05:53AM 41.6850 -76.5069 61° Northeast 558 642 28,500 -3,300 Descending FlightAware ADS-B
05:54AM 41.7240 -76.4104 62° Northeast 553 636 26,700 -2,880 Descending FlightAware ADS-B
05:54AM 41.7609 -76.3190 62° Northeast 532 612 25,500 -1,740 Descending FlightAware ADS-B
05:55AM 41.8353 -76.1341 62° Northeast 521 600 24,000 -840 Descending FlightAware ADS-B
05:56AM 41.8320 -76.1460 250° West 525 604 24,000  Level FlightAware
05:57AM 41.9300 -75.8980 62° Northeast 527 606 24,000  Level FlightAware
05:57AM 41.9740 -75.7880 62° Northeast 528 608 24,000  Level FlightAware
05:58AM 42.0370 -75.6310 62° Northeast 531 611 24,000  Level FlightAware
05:59AM 42.1030 -75.4610 62° Northeast 534 615 24,000  Level FlightAware
06:00AM 42.1490 -75.3460 62° Northeast 537 618 24,000  Level FlightAware
06:00AM 42.1540 -75.3310 66° East 537 618 24,000  Level FlightAware
06:01AM 42.2480 -75.0890 62° Northeast 530 610 24,000 -240 Level FlightAware
06:02AM 42.2910 -74.9810 62° Northeast 527 606 23,700 -240 Descending FlightAware
06:03AM 42.3280 -74.8870 62° Northeast 527 606 23,700  Level FlightAware
06:03AM 42.3640 -74.7950 62° Northeast 527 606 23,700  Level FlightAware
06:04AM 42.4120 -74.6710 62° Northeast 527 606 23,700  Level FlightAware
06:05AM 42.4470 -74.5820 62° Northeast 527 606 23,700 -8,040 Level FlightAware
06:06AM 42.5086 -74.3919 62° Northeast 435 501 10,500 -6,600 Descending Boston Center
06:07AM 42.5214 -74.2600 82° East 371 427 10,200 -840 Descending Boston Center
06:08AM 42.5314 -74.1531 83° East 327 376 8,900 -1,860 Descending Boston Center
06:09AM 42.5372 -74.0322 86° East 305 351 6,500 -2,040 Descending Boston Center
06:10AM 42.5469 -73.9394 82° East 277 319 4,900 -1,560 Descending Boston Center
06:11AM 42.5522 -73.8408 86° East 246 283 3,400 -960 Descending Boston Center
06:12AM 42.5881 -73.8050 36° Northeast 175 201 3,000 -480 Descending Boston Center
06:13AM 42.6403 -73.7919 10° North 161 185 2,500 -840 Descending Boston Center
06:14AM 42.6881 -73.8044 349° North 128 147 1,200 -840 Descending Boston Center
06:15AM 42.7214 -73.8078 356° North 111 128 700 -600 Descending Boston Center